Time;durP1;ratioP1;P1;durP2;ratioP2;P2;SDS_P1;SDS_P2;PMS_P1;PMS_P2;Temp;Humidity;BMP_temperature;BMP_pressure;BME280_temperature;BME280_humidity;BME280_pressure;Samples;Min_cycle;Max_cycle;Signal;HPM_P1;HPM_P2
2022/11/02 00:01:07;;;;;;;35.50;19.90;;;;;;;10.14;91.98;98810.44;106323;1306;138802;-76
2022/11/02 00:03:33;;;;;;;33.80;20.30;;;;;;;10.13;91.52;98810.04;106433;1310;22203;-76
2022/11/02 00:05:59;;;;;;;35.60;19.00;;;;;;;10.12;91.84;98812.89;106407;1310;22953;-75
2022/11/02 00:08:25;;;;;;;30.00;18.70;;;;;;;10.13;91.78;98816.73;106446;1296;138573;-75
2022/11/02 00:10:51;;;;;;;31.30;18.30;;;;;;;10.13;91.75;98817.65;106586;1310;22283;-75
2022/11/02 00:13:19;;;;;;;32.30;18.70;;;;;;;10.13;91.64;98808.50;106651;1302;139103;-76
2022/11/02 00:15:46;;;;;;;35.30;19.50;;;;;;;10.13;91.82;98807.56;106519;1309;22235;-75
2022/11/02 00:18:13;;;;;;;35.30;19.30;;;;;;;10.13;91.97;98807.02;106499;1304;22163;-75
2022/11/02 00:20:42;;;;;;;30.20;19.30;;;;;;;10.12;91.97;98805.38;106440;1312;138562;-76
2022/11/02 00:23:10;;;;;;;34.30;19.30;;;;;;;10.13;91.97;98807.91;106434;1311;22242;-75
2022/11/02 00:25:42;;;;;;;31.20;19.20;;;;;;;10.13;92.19;98809.45;106300;1312;139071;-76
2022/11/02 00:28:09;;;;;;;33.90;21.00;;;;;;;10.14;91.73;98811.20;106432;1302;22335;-76
2022/11/02 00:30:36;;;;;;;33.10;20.20;;;;;;;10.14;91.98;98809.86;106478;1304;22230;-76
2022/11/02 00:33:06;;;;;;;33.20;19.20;;;;;;;10.15;91.96;98809.42;106382;1310;138664;-76
2022/11/02 00:35:35;;;;;;;34.40;19.40;;;;;;;10.16;92.16;98808.48;106505;1310;22294;-76
2022/11/02 00:38:01;;;;;;;32.80;19.10;;;;;;;10.17;92.14;98810.44;106316;1301;138717;-75
2022/11/02 00:40:27;;;;;;;39.00;21.60;;;;;;;10.19;92.27;98809.36;106514;1295;22224;-76
2022/11/02 00:42:53;;;;;;;33.30;19.50;;;;;;;10.19;91.99;98806.43;106288;1312;139261;-76
2022/11/02 00:45:21;;;;;;;35.30;20.50;;;;;;;10.20;92.32;98806.79;106429;1312;22251;-75
2022/11/02 00:47:50;;;;;;;32.90;20.40;;;;;;;10.21;92.07;98808.77;106775;1294;22746;-78
2022/11/02 00:50:17;;;;;;;30.90;18.90;;;;;;;10.23;92.29;98810.02;106365;1313;138560;-76
2022/11/02 00:52:44;;;;;;;34.70;19.70;;;;;;;10.24;92.13;98816.47;106578;1310;22359;-76
2022/11/02 00:55:11;;;;;;;35.30;20.70;;;;;;;10.26;92.50;98822.55;106420;1313;138888;-76
2022/11/02 00:57:41;;;;;;;34.70;20.60;;;;;;;10.27;92.28;98819.88;106739;1298;22133;-76
2022/11/02 01:00:09;;;;;;;35.70;20.40;;;;;;;10.29;92.45;98816.08;106410;1312;23058;-75
2022/11/02 01:02:36;;;;;;;28.70;19.60;;;;;;;10.30;92.16;98814.80;106417;1312;139105;-76
2022/11/02 01:05:03;;;;;;;30.70;18.50;;;;;;;10.31;92.57;98815.09;106409;1312;22179;-76
2022/11/02 01:07:30;;;;;;;28.10;16.80;;;;;;;10.32;92.56;98813.58;106434;1311;138593;-75
2022/11/02 01:09:59;;;;;;;31.90;18.70;;;;;;;10.32;92.30;98812.05;106268;1302;23150;-76
2022/11/02 01:12:28;;;;;;;30.20;18.30;;;;;;;10.34;92.60;98814.21;106451;1313;22161;-75
2022/11/02 01:14:55;;;;;;;24.90;16.70;;;;;;;10.35;92.92;98813.88;106401;1311;138540;-76
2022/11/02 01:17:23;;;;;;;27.80;17.10;;;;;;;10.35;92.58;98813.27;106480;1313;22124;-75
2022/11/02 01:19:50;;;;;;;32.60;17.80;;;;;;;10.36;92.53;98812.98;106279;1302;138640;-75
2022/11/02 01:22:17;;;;;;;30.70;17.10;;;;;;;10.38;93.09;98809.04;106408;1312;22444;-76
2022/11/02 01:24:43;;;;;;;28.80;17.70;;;;;;;10.39;92.83;98805.21;106530;1310;22181;-76
2022/11/02 01:27:09;;;;;;;27.10;16.60;;;;;;;10.41;92.93;98805.43;106550;1300;22406;-75
2022/11/02 01:29:36;;;;;;;29.60;17.00;;;;;;;10.43;93.28;98809.17;106478;1311;22144;-76
2022/11/02 01:32:02;;;;;;;27.10;17.00;;;;;;;10.45;92.97;98805.73;106611;1303;139017;-76
2022/11/02 01:34:28;;;;;;;26.00;16.80;;;;;;;10.47;92.72;98803.92;106612;1310;22176;-76
2022/11/02 01:36:54;;;;;;;29.40;17.60;;;;;;;10.49;92.71;98808.39;106378;1313;138675;-75
2022/11/02 01:39:20;;;;;;;29.00;17.00;;;;;;;10.51;92.88;98804.80;106567;1296;22109;-76
2022/11/02 01:41:51;;;;;;;30.40;16.60;;;;;;;10.53;92.82;98805.14;106469;1312;23093;-75
2022/11/02 01:44:32;;;;;;;27.20;16.90;;;;;;;10.54;92.63;98806.60;106335;1306;138729;-76
2022/11/02 01:47:16;;;;;;;28.50;18.60;;;;;;;10.56;92.80;98806.31;106262;1312;22180;-76
2022/11/02 01:49:46;;;;;;;26.20;16.90;;;;;;;10.57;92.57;98806.95;106314;1299;138707;-76
2022/11/02 01:52:20;;;;;;;31.20;18.10;;;;;;;10.58;92.53;98811.34;106202;1310;22256;-75
2022/11/02 01:55:02;;;;;;;30.00;17.60;;;;;;;10.59;92.52;98810.27;106507;1306;140611;-75
2022/11/02 01:57:32;;;;;;;30.60;15.70;;;;;;;10.59;92.61;98808.09;106469;1311;23034;-75
2022/11/02 02:00:04;;;;;;;28.60;15.30;;;;;;;10.59;92.43;98807.33;106319;1301;22124;-75
2022/11/02 02:03:07;;;;;;;24.30;15.40;;;;;;;10.60;92.32;98811.80;106440;1312;138490;-75
2022/11/02 02:05:44;;;;;;;27.60;15.90;;;;;;;10.61;92.41;98805.29;106417;1312;22260;-74
2022/11/02 02:08:14;;;;;;;26.40;15.60;;;;;;;10.63;92.34;98806.65;106413;1312;138559;-74
2022/11/02 02:10:41;;;;;;;27.90;16.00;;;;;;;10.64;92.18;98805.58;106465;1312;22276;-75
2022/11/02 02:13:07;;;;;;;28.60;16.90;;;;;;;10.66;92.25;98803.70;106462;1311;138794;-75
2022/11/02 02:15:41;;;;;;;28.30;16.80;;;;;;;10.68;92.04;98809.65;106517;1313;22725;-75
2022/11/02 02:18:26;;;;;;;24.70;14.90;;;;;;;10.70;91.78;98811.80;106465;1312;22112;-75
2022/11/02 02:21:18;;;;;;;26.60;14.90;;;;;;;10.72;91.67;98809.80;106272;1307;138701;-74
2022/11/02 02:24:03;;;;;;;25.30;15.30;;;;;;;10.74;91.37;98809.89;106475;1303;22073;-75
2022/11/02 02:26:57;;;;;;;24.90;15.00;;;;;;;10.75;91.10;98813.34;106376;1306;138623;-74
2022/11/02 02:29:26;;;;;;;26.40;15.70;;;;;;;10.76;90.98;98811.02;106606;1312;22127;-74
2022/11/02 02:32:06;;;;;;;27.80;15.60;;;;;;;10.76;91.29;98809.28;106410;1310;138731;-75
2022/11/02 02:34:55;;;;;;;26.30;16.30;;;;;;;10.77;91.16;98809.03;106612;1310;22153;-75
2022/11/02 02:37:34;;;;;;;24.00;15.40;;;;;;;10.76;90.82;98809.34;106358;1298;139153;-75
2022/11/02 02:40:04;;;;;;;26.60;16.10;;;;;;;10.75;90.91;98808.34;106509;1296;22136;-75
2022/11/02 02:42:39;;;;;;;27.60;16.70;;;;;;;10.74;90.98;98809.25;106499;1312;22182;-76
2022/11/02 02:45:22;;;;;;;26.70;16.00;;;;;;;10.73;90.88;98813.24;106372;1312;138589;-75
2022/11/02 02:48:04;;;;;;;25.30;15.90;;;;;;;10.72;90.99;98817.63;106547;1312;22946;-75
2022/11/02 02:50:43;;;;;;;25.80;15.80;;;;;;;10.71;90.86;98820.72;106435;1298;138750;-76
2022/11/02 02:53:11;;;;;;;27.20;15.40;;;;;;;10.69;90.77;98822.09;106558;1310;22105;-74
2022/11/02 02:55:43;;;;;;;26.00;15.80;;;;;;;10.66;90.99;98823.32;106391;1312;138692;-75
2022/11/02 02:58:24;;;;;;;29.60;17.50;;;;;;;10.62;90.60;98827.33;106571;1311;22671;-75
2022/11/02 03:00:53;;;;;;;26.50;16.20;;;;;;;10.57;90.62;98827.70;106159;1301;138759;-75
2022/11/02 03:03:27;;;;;;;27.70;16.70;;;;;;;10.53;91.04;98831.73;106522;1310;22543;-75
2022/11/02 03:06:19;;;;;;;26.30;16.40;;;;;;;10.49;90.71;98828.64;106512;1313;22147;-74
2022/11/02 03:08:57;;;;;;;29.80;16.90;;;;;;;10.43;91.06;98835.91;106446;1313;138562;-75
2022/11/02 03:11:23;;;;;;;30.60;17.20;;;;;;;10.39;90.91;98837.84;106616;1296;22095;-75
2022/11/02 03:13:53;;;;;;;26.70;16.90;;;;;;;10.36;91.61;98837.80;106374;1306;138779;-75
2022/11/02 03:16:58;;;;;;;25.70;15.50;;;;;;;10.33;91.63;98843.84;106559;1312;22155;-74
2022/11/02 03:19:40;;;;;;;26.40;15.80;;;;;;;10.29;91.56;98844.67;106569;1306;138789;-75
2022/11/02 03:22:31;;;;;;;25.30;16.60;;;;;;;10.24;91.62;98839.20;106570;1299;22072;-75
2022/11/02 03:25:12;;;;;;;27.40;16.90;;;;;;;10.20;91.95;98840.52;106367;1312;138828;-75
2022/11/02 03:27:52;;;;;;;28.90;17.60;;;;;;;10.16;92.02;98837.91;106471;1312;22855;-74
2022/11/02 03:30:21;;;;;;;32.30;18.40;;;;;;;10.12;92.05;98841.37;106482;1312;22347;-75
2022/11/02 03:32:52;;;;;;;27.70;16.40;;;;;;;10.08;92.05;98834.35;106321;1305;138798;-75
2022/11/02 03:35:24;;;;;;;32.30;17.90;;;;;;;10.05;92.13;98837.04;106503;1310;23076;-75
2022/11/02 03:38:06;;;;;;;27.80;16.10;;;;;;;10.01;92.33;98845.72;106341;1310;138848;-75
2022/11/02 03:40:45;;;;;;;30.10;17.60;;;;;;;9.98;92.54;98843.99;106427;1313;22870;-75
2022/11/02 03:43:13;;;;;;;31.10;19.10;;;;;;;9.95;92.70;98845.60;106392;1298;138566;-75
2022/11/02 03:45:50;;;;;;;33.40;18.10;;;;;;;9.93;92.65;98844.33;106323;1311;22055;-77
2022/11/02 03:48:28;;;;;;;28.90;17.00;;;;;;;9.90;92.97;98844.27;106519;1312;22075;-74
2022/11/02 03:50:57;;;;;;;32.60;18.20;;;;;;;9.90;93.22;98846.13;106118;1315;138542;-75
2022/11/02 03:53:43;;;;;;;28.70;17.00;;;;;;;9.88;93.42;98848.63;106624;1296;22107;-74
2022/11/02 03:56:24;;;;;;;27.10;16.60;;;;;;;9.87;93.66;98853.23;106408;1313;138510;-74
2022/11/02 03:58:50;;;;;;;28.10;15.10;;;;;;;9.87;93.47;98855.00;106444;1310;22570;-75
2022/11/02 04:01:19;;;;;;;26.40;15.90;;;;;;;9.84;93.67;98854.75;106380;1303;138647;-76
2022/11/02 04:03:46;;;;;;;30.40;16.50;;;;;;;9.82;93.79;98853.09;106463;1312;22804;-75
2022/11/02 04:06:13;;;;;;;29.10;17.30;;;;;;;9.81;93.55;98850.60;106265;1312;22116;-75
2022/11/02 04:08:42;;;;;;;33.40;17.90;;;;;;;9.80;93.79;98851.61;106471;1312;138415;-75
2022/11/02 04:19:47;;;;;;;35.20;19.60;;;;;;;9.77;93.76;98859.91;106091;1312;138498;-75
2022/11/02 04:25:17;;;;;;;32.50;18.80;;;;;;;9.73;93.45;98858.92;106383;1309;138461;-76
2022/11/02 04:28:08;;;;;;;33.90;19.50;;;;;;;9.70;93.28;98859.66;106602;1308;22133;-76
2022/11/02 04:30:38;;;;;;;34.10;19.40;;;;;;;9.66;93.38;98860.91;106527;1313;22838;-75
2022/11/02 04:36:10;;;;;;;36.10;20.10;;;;;;;9.60;93.67;98861.84;106780;1306;22184;-75
2022/11/02 04:38:41;;;;;;;38.20;20.70;;;;;;;9.57;93.77;98865.73;106434;1311;138336;-75
2022/11/02 04:44:01;;;;;;;37.80;21.50;;;;;;;9.53;94.33;98872.13;106270;1305;138557;-75
2022/11/02 04:46:30;;;;;;;38.20;22.30;;;;;;;9.53;94.61;98873.44;106216;1312;22451;-74
2022/11/02 04:48:56;;;;;;;41.20;22.40;;;;;;;9.52;94.66;98878.52;106121;1315;139173;-75
2022/11/02 04:51:25;;;;;;;38.10;21.80;;;;;;;9.52;94.96;98878.09;106474;1312;22256;-75
2022/11/02 04:53:53;;;;;;;38.90;22.80;;;;;;;9.52;94.96;98879.43;106449;1299;22269;-75
2022/11/02 04:56:21;;;;;;;38.20;22.50;;;;;;;9.52;94.74;98880.89;106368;1311;138779;-75
2022/11/02 04:58:51;;;;;;;39.60;23.20;;;;;;;9.52;94.86;98875.23;106497;1310;22340;-75
2022/11/02 05:01:19;;;;;;;42.20;22.30;;;;;;;9.51;95.21;98869.03;106087;1310;138595;-75
2022/11/02 05:03:50;;;;;;;44.60;22.80;;;;;;;9.52;95.38;98869.31;106355;1304;22145;-75
2022/11/02 05:06:19;;;;;;;39.60;22.50;;;;;;;9.54;95.26;98871.13;106309;1311;22088;-76
2022/11/02 05:08:46;;;;;;;41.30;21.70;;;;;;;9.56;95.59;98876.66;106251;1312;138529;-75
2022/11/02 05:11:12;;;;;;;39.90;21.80;;;;;;;9.57;95.44;98875.27;106495;1310;22162;-76
2022/11/02 05:13:40;;;;;;;36.30;22.00;;;;;;;9.57;95.40;98876.36;106090;1305;140785;-75
2022/11/02 05:16:13;;;;;;;41.60;22.20;;;;;;;9.57;95.41;98879.32;106502;1310;22193;-75
2022/11/02 05:18:40;;;;;;;43.80;21.70;;;;;;;9.59;95.42;98881.09;106456;1310;22706;-77
2022/11/02 05:21:08;;;;;;;43.80;22.90;;;;;;;9.61;95.68;98882.63;106477;1308;138118;-75
2022/11/02 05:23:35;;;;;;;47.70;24.50;;;;;;;9.63;95.67;98883.73;106439;1312;22175;-75
2022/11/02 05:26:08;;;;;;;39.40;23.20;;;;;;;9.64;95.78;98888.02;106205;1312;138363;-75
2022/11/02 05:28:34;;;;;;;40.60;23.80;;;;;;;9.66;95.93;98894.52;106340;1307;22214;-75
2022/11/02 05:31:03;;;;;;;36.10;21.10;;;;;;;9.67;96.12;98895.59;106372;1311;138535;-75
2022/11/02 05:33:31;;;;;;;41.40;22.80;;;;;;;9.68;95.83;98890.06;106234;1296;22377;-75
2022/11/02 05:35:59;;;;;;;33.10;21.60;;;;;;;9.69;96.08;98892.60;106826;1301;22128;-75
2022/11/02 05:38:27;;;;;;;43.10;23.20;;;;;;;9.72;96.22;98890.82;106306;1310;138387;-75
2022/11/02 05:40:55;;;;;;;42.20;22.70;;;;;;;9.73;96.39;98892.39;106240;1311;22203;-75
2022/11/02 05:43:23;;;;;;;39.80;21.70;;;;;;;9.75;96.23;98895.50;106169;1310;138648;-75
2022/11/02 05:45:54;;;;;;;33.70;21.00;;;;;;;9.77;96.16;98902.52;106297;1304;23026;-75
2022/11/02 05:48:21;;;;;;;37.10;22.00;;;;;;;9.78;96.22;98903.45;106285;1312;22069;-75
2022/11/02 05:50:48;;;;;;;38.50;21.60;;;;;;;9.79;95.98;98904.07;106319;1312;138920;-75
2022/11/02 05:53:15;;;;;;;41.80;22.30;;;;;;;9.80;96.35;98903.39;106442;1311;22141;-75
2022/11/02 05:55:41;;;;;;;48.10;24.20;;;;;;;9.81;96.46;98907.30;106172;1305;138403;-75
2022/11/02 05:58:07;;;;;;;39.80;21.70;;;;;;;9.83;96.45;98910.96;106531;1310;22129;-75
2022/11/02 06:00:33;;;;;;;38.60;20.70;;;;;;;9.86;96.49;98912.88;106449;1310;22316;-75
2022/11/02 06:02:59;;;;;;;42.40;22.40;;;;;;;9.89;96.59;98907.41;106490;1310;138355;-75
2022/11/02 06:05:26;;;;;;;38.40;22.50;;;;;;;9.91;96.68;98907.48;106589;1296;22249;-75
2022/11/02 06:07:52;;;;;;;42.90;21.80;;;;;;;9.95;96.29;98907.96;106483;1302;138336;-75
2022/11/02 06:10:18;;;;;;;40.50;21.90;;;;;;;9.98;96.25;98907.13;106599;1310;22321;-77
2022/11/02 06:12:44;;;;;;;38.90;22.00;;;;;;;10.01;96.07;98906.83;106430;1304;138466;-78
2022/11/02 06:15:11;;;;;;;35.40;20.00;;;;;;;10.04;96.21;98911.10;106512;1291;22370;-75
2022/11/02 06:17:40;;;;;;;43.20;22.20;;;;;;;10.07;95.93;98913.29;106507;1310;22188;-76
2022/11/02 06:20:07;;;;;;;39.90;20.50;;;;;;;10.11;95.73;98914.02;106464;1305;138503;-75
2022/11/02 06:22:40;;;;;;;38.60;21.20;;;;;;;10.13;95.58;98918.13;106546;1300;22194;-75
2022/11/02 06:25:08;;;;;;;41.50;21.20;;;;;;;10.14;95.31;98919.80;106301;1310;138877;-75
2022/11/02 06:27:34;;;;;;;40.30;21.90;;;;;;;10.16;95.72;98919.89;106456;1309;22258;-76
2022/11/02 06:30:03;;;;;;;39.50;22.70;;;;;;;10.19;95.55;98923.58;106370;1311;22783;-75
2022/11/02 06:32:29;;;;;;;42.80;23.00;;;;;;;10.22;95.59;98922.83;106300;1308;138800;-76
2022/11/02 06:34:55;;;;;;;41.60;22.40;;;;;;;10.24;95.40;98922.01;106572;1296;22195;-76
2022/11/02 06:37:22;;;;;;;44.30;24.90;;;;;;;10.25;94.95;98923.36;106428;1310;139069;-75
2022/11/02 06:39:48;;;;;;;51.70;23.90;;;;;;;10.27;94.94;98925.80;106488;1310;22172;-75
2022/11/02 06:42:14;;;;;;;45.80;24.30;;;;;;;10.27;94.87;98930.21;106519;1310;22233;-75
2022/11/02 06:44:40;;;;;;;45.30;25.10;;;;;;;10.28;94.65;98927.23;106293;1312;138760;-75
2022/11/02 06:47:07;;;;;;;47.30;25.40;;;;;;;10.27;94.75;98927.44;106548;1299;22249;-76
2022/11/02 06:49:33;;;;;;;39.60;23.20;;;;;;;10.27;94.92;98929.01;106447;1310;138570;-75
2022/11/02 06:51:59;;;;;;;41.20;22.90;;;;;;;10.26;94.80;98927.25;106588;1310;22239;-75
2022/11/02 06:54:25;;;;;;;51.10;25.10;;;;;;;10.26;94.82;98930.18;106606;1296;22339;-75
2022/11/02 06:56:51;;;;;;;44.10;24.90;;;;;;;10.25;94.97;98927.55;106560;1302;138459;-76
2022/11/02 06:59:17;;;;;;;47.00;23.30;;;;;;;10.25;94.48;98923.95;106425;1312;23197;-75
2022/11/02 07:01:43;;;;;;;49.70;24.90;;;;;;;10.25;94.78;98928.23;106408;1310;138749;-77
2022/11/02 07:04:09;;;;;;;47.90;24.50;;;;;;;10.26;94.97;98935.13;106542;1310;22290;-76
2022/11/02 07:06:35;;;;;;;38.80;20.50;;;;;;;10.28;94.80;98934.80;106383;1298;22256;-78
2022/11/02 07:09:01;;;;;;;48.00;24.60;;;;;;;10.38;96.17;98932.89;106422;1310;138517;-76
2022/11/02 07:11:27;;;;;;;46.60;25.50;;;;;;;10.50;95.60;98933.23;106523;1310;22286;-76
2022/11/02 07:13:54;;;;;;;44.90;23.70;;;;;;;10.56;95.22;98931.98;106353;1310;140372;-75
2022/11/02 07:16:20;;;;;;;48.90;25.30;;;;;;;10.60;94.44;98932.30;106279;1298;22165;-75
2022/11/02 07:18:46;;;;;;;47.20;26.20;;;;;;;10.65;94.66;98929.80;106465;1310;138733;-75
2022/11/02 07:21:12;;;;;;;46.20;25.60;;;;;;;10.70;94.64;98931.94;106600;1308;22303;-79
2022/11/02 07:23:38;;;;;;;49.10;25.70;;;;;;;10.73;94.56;98930.23;106587;1309;22173;-75
2022/11/02 07:26:04;;;;;;;50.00;26.70;;;;;;;10.78;94.54;98927.36;106436;1296;138471;-75
2022/11/02 07:28:31;;;;;;;46.50;27.20;;;;;;;10.82;94.15;98922.16;106553;1310;22282;-76
2022/11/02 07:30:57;;;;;;;52.40;27.50;;;;;;;10.84;93.69;98917.85;106393;1309;138861;-75
2022/11/02 07:33:23;;;;;;;51.00;26.40;;;;;;;10.88;94.05;98915.92;106518;1284;22309;-75
2022/11/02 07:35:49;;;;;;;52.80;26.40;;;;;;;10.91;93.88;98914.91;106437;1296;22213;-76
2022/11/02 07:38:15;;;;;;;56.00;28.40;;;;;;;10.95;93.61;98916.64;106335;1306;139042;-76
2022/11/02 07:40:41;;;;;;;56.00;26.80;;;;;;;10.99;93.70;98916.45;106529;1305;22118;-75
2022/11/02 07:43:07;;;;;;;52.80;27.90;;;;;;;11.03;93.66;98914.33;106437;1310;139053;-76
2022/11/02 07:45:45;;;;;;;55.50;28.20;;;;;;;11.08;93.60;98913.98;106457;1312;22336;-75
2022/11/02 07:48:11;;;;;;;54.30;28.10;;;;;;;11.11;93.30;98910.84;106407;1299;23048;-76
2022/11/02 07:50:38;;;;;;;52.60;27.70;;;;;;;11.15;93.28;98914.36;106507;1302;138850;-75
2022/11/02 07:53:04;;;;;;;55.30;28.50;;;;;;;11.19;93.47;98916.81;106529;1310;22090;-75
2022/11/02 07:55:31;;;;;;;52.30;28.40;;;;;;;11.24;92.97;98913.59;106500;1309;138777;-74
2022/11/02 07:58:00;;;;;;;51.30;27.80;;;;;;;11.28;93.08;98914.94;106466;1304;22135;-75
2022/11/02 08:00:30;;;;;;;51.10;26.30;;;;;;;11.32;93.09;98919.84;106333;1307;22148;-75
2022/11/02 08:02:58;;;;;;;53.40;27.30;;;;;;;11.38;92.92;98917.63;106450;1309;138521;-75
2022/11/02 08:05:25;;;;;;;49.00;25.80;;;;;;;11.43;92.62;98924.05;106410;1311;22320;-74
2022/11/02 08:08:21;;;;;;;49.60;27.10;;;;;;;11.45;92.13;98924.81;106289;1300;139104;-76
2022/11/02 08:10:50;;;;;;;46.50;26.30;;;;;;;11.47;92.33;98920.05;106479;1310;22117;-76
2022/11/02 08:13:22;;;;;;;51.10;28.20;;;;;;;11.52;92.52;98916.36;106356;1310;138986;-76
2022/11/02 08:15:50;;;;;;;48.70;25.10;;;;;;;11.61;92.47;98919.42;106658;1285;22785;-77
2022/11/02 08:18:19;;;;;;;50.60;27.10;;;;;;;11.68;92.29;98916.67;106470;1304;22271;-75
2022/11/02 08:20:46;;;;;;;46.30;26.20;;;;;;;11.76;91.97;98913.90;106321;1312;139001;-75
2022/11/02 08:23:14;;;;;;;46.60;25.70;;;;;;;11.85;91.89;98915.67;106434;1311;23163;-76
2022/11/02 08:25:41;;;;;;;48.00;25.70;;;;;;;11.94;91.68;98910.96;106454;1310;138726;-75
2022/11/02 08:28:13;;;;;;;47.90;26.40;;;;;;;12.03;91.49;98911.02;106584;1296;22922;-75
2022/11/02 08:30:39;;;;;;;46.70;25.70;;;;;;;12.11;90.74;98911.94;106658;1308;22189;-75
2022/11/02 08:33:10;;;;;;;46.40;26.70;;;;;;;12.18;90.43;98911.41;106500;1310;138610;-76
2022/11/02 08:35:36;;;;;;;40.20;22.80;;;;;;;12.27;90.45;98914.77;106627;1304;22355;-74
2022/11/02 08:38:03;;;;;;;43.10;23.10;;;;;;;12.36;89.83;98912.73;106429;1310;138878;-74
2022/11/02 08:40:30;;;;;;;42.70;22.20;;;;;;;12.42;89.60;98910.05;106461;1312;22340;-76
2022/11/02 08:43:02;;;;;;;39.10;21.90;;;;;;;12.50;89.36;98907.84;106386;1312;138602;-75
2022/11/02 08:45:30;;;;;;;35.10;19.20;;;;;;;12.59;89.02;98910.45;106475;1310;22861;-75
2022/11/02 08:47:56;;;;;;;36.70;20.80;;;;;;;12.67;88.51;98905.13;106462;1298;22932;-75
2022/11/02 08:50:23;;;;;;;40.00;19.90;;;;;;;12.75;88.21;98905.10;106301;1310;138609;-76
2022/11/02 08:52:50;;;;;;;39.90;21.00;;;;;;;12.83;87.81;98905.60;106397;1310;22818;-75
2022/11/02 08:55:16;;;;;;;42.60;21.60;;;;;;;12.88;87.21;98903.44;106380;1310;138951;-75
2022/11/02 08:57:46;;;;;;;33.70;18.50;;;;;;;12.94;87.11;98904.67;106402;1296;22984;-75
2022/11/02 09:00:12;;;;;;;35.50;20.50;;;;;;;12.98;86.22;98908.90;106569;1309;22165;-75
2022/11/02 09:02:39;;;;;;;34.00;19.00;;;;;;;13.01;86.20;98907.09;106461;1310;138774;-75
2022/11/02 09:05:06;;;;;;;36.50;20.00;;;;;;;13.06;85.92;98904.11;106437;1312;22216;-75
2022/11/02 09:07:32;;;;;;;36.70;18.10;;;;;;;13.12;86.15;98902.55;106418;1310;138681;-75
2022/11/02 09:09:58;;;;;;;33.10;17.60;;;;;;;13.20;85.73;98907.75;106419;1299;22243;-75
2022/11/02 09:12:25;;;;;;;32.20;18.60;;;;;;;13.26;85.27;98903.37;106536;1310;22792;-75
2022/11/02 09:14:51;;;;;;;36.20;17.40;;;;;;;13.33;85.06;98898.02;106438;1310;138769;-74
2022/11/02 09:17:18;;;;;;;32.70;18.60;;;;;;;13.40;84.91;98897.78;106567;1309;22399;-75
2022/11/02 09:19:44;;;;;;;28.60;17.50;;;;;;;13.47;84.56;98897.98;106470;1296;138803;-75
2022/11/02 09:22:11;;;;;;;29.80;17.50;;;;;;;13.52;83.78;98896.31;106599;1305;22168;-75
2022/11/02 09:24:37;;;;;;;37.40;19.80;;;;;;;13.59;83.91;98892.02;106631;1303;22579;-76
2022/11/02 09:27:03;;;;;;;34.60;18.50;;;;;;;13.64;83.55;98892.30;106487;1310;138607;-77
2022/11/02 09:29:29;;;;;;;33.50;19.30;;;;;;;13.71;83.64;98891.69;106532;1294;22580;-76
2022/11/02 09:31:55;;;;;;;34.40;19.30;;;;;;;13.78;83.49;98889.30;106444;1310;138766;-75
2022/11/02 09:34:22;;;;;;;31.60;17.40;;;;;;;13.84;82.90;98888.94;106410;1293;195651;-74
2022/11/02 09:36:48;;;;;;;31.80;18.10;;;;;;;13.90;82.45;98886.64;106614;1304;138866;-75
2022/11/02 09:39:16;;;;;;;30.50;18.30;;;;;;;13.94;82.23;98885.11;106575;1299;22213;-76
2022/11/02 09:41:50;;;;;;;28.30;16.10;;;;;;;13.99;81.93;98880.67;106643;1310;22132;-75
2022/11/02 09:44:29;;;;;;;34.80;18.60;;;;;;;14.04;81.56;98881.17;106685;1298;138914;-76
2022/11/02 09:46:56;;;;;;;29.40;17.30;;;;;;;14.10;81.49;98878.75;106442;1310;22182;-75
2022/11/02 09:49:25;;;;;;;27.40;16.90;;;;;;;14.16;81.05;98881.17;106665;1303;139124;-76
2022/11/02 09:51:55;;;;;;;31.10;16.00;;;;;;;14.23;81.29;98877.86;106549;1311;22162;-76
2022/11/02 09:54:31;;;;;;;29.80;16.10;;;;;;;14.33;81.24;98878.71;106225;1311;22220;-75
2022/11/02 09:57:04;;;;;;;26.50;15.20;;;;;;;14.42;80.66;98880.61;106452;1304;139270;-75
2022/11/02 09:59:30;;;;;;;25.60;13.00;;;;;;;14.50;80.07;98873.61;106795;1288;22085;-74
2022/11/02 10:02:25;;;;;;;22.40;13.50;;;;;;;14.58;79.34;98870.20;106749;1297;138793;-78
2022/11/02 10:05:12;;;;;;;22.30;12.90;;;;;;;14.66;78.54;98876.41;106605;1310;22087;-75
2022/11/02 10:07:47;;;;;;;17.70;11.20;;;;;;;14.72;77.61;98878.48;106495;1310;138542;-75
2022/11/02 10:10:19;;;;;;;18.80;11.30;;;;;;;14.76;76.26;98878.02;106424;1294;22192;-75
2022/11/02 10:13:15;;;;;;;20.70;11.50;;;;;;;14.80;75.76;98874.16;106453;1307;138811;-75
2022/11/02 10:15:59;;;;;;;16.10;10.50;;;;;;;14.82;75.54;98875.12;106534;1309;22245;-74
2022/11/02 10:18:28;;;;;;;19.00;10.00;;;;;;;14.84;75.09;98873.31;106541;1303;22211;-75
2022/11/02 10:20:58;;;;;;;17.80;10.10;;;;;;;14.90;74.94;98871.98;106310;1298;138768;-76
2022/11/02 10:23:30;;;;;;;16.40;9.60;;;;;;;14.96;74.43;98866.61;106474;1310;22167;-75
2022/11/02 10:25:59;;;;;;;16.40;10.40;;;;;;;15.02;74.54;98869.16;106363;1310;138425;-75
2022/11/02 10:28:30;;;;;;;16.90;10.60;;;;;;;15.07;74.19;98866.67;106555;1310;22231;-75
2022/11/02 10:30:56;;;;;;;20.80;11.90;;;;;;;15.09;73.80;98866.48;106308;1305;138631;-75
2022/11/02 10:33:28;;;;;;;21.70;11.70;;;;;;;15.13;74.27;98862.88;106593;1310;22199;-76
2022/11/02 10:36:25;;;;;;;18.80;11.50;;;;;;;15.21;74.62;98862.10;106449;1305;23110;-75
2022/11/02 10:39:00;;;;;;;18.90;11.80;;;;;;;15.29;73.65;98855.89;106445;1310;138572;-76
2022/11/02 10:41:48;;;;;;;19.30;10.90;;;;;;;15.35;73.16;98856.42;106487;1295;22454;-75
2022/11/02 10:44:30;;;;;;;19.30;11.60;;;;;;;15.44;73.58;98851.25;106272;1312;138560;-76
2022/11/02 10:47:02;;;;;;;19.30;11.80;;;;;;;15.54;73.72;98848.27;106511;1305;22367;-75
2022/11/02 10:50:00;;;;;;;22.50;12.20;;;;;;;15.62;73.07;98853.80;106397;1294;138679;-75
2022/11/02 10:52:35;;;;;;;23.70;12.90;;;;;;;15.70;72.79;98852.95;106481;1310;22360;-75
2022/11/02 10:55:08;;;;;;;20.10;11.40;;;;;;;15.79;72.79;98855.38;106327;1310;138624;-75
2022/11/02 10:57:37;;;;;;;18.50;11.60;;;;;;;15.86;72.58;98843.53;106519;1304;22319;-75
2022/11/02 11:00:26;;;;;;;17.00;10.40;;;;;;;15.93;71.88;98842.95;106526;1310;22177;-75
2022/11/02 11:03:12;;;;;;;17.70;11.00;;;;;;;15.98;71.18;98842.68;106373;1313;138476;-76
2022/11/02 11:05:56;;;;;;;15.60;9.10;;;;;;;16.03;71.41;98845.23;106752;1303;22184;-75
2022/11/02 11:08:41;;;;;;;16.30;9.70;;;;;;;16.00;70.68;98852.08;106454;1305;138360;-75
2022/11/02 11:11:30;;;;;;;16.20;7.80;;;;;;;15.92;70.10;98852.83;106563;1291;22227;-76
2022/11/02 11:14:15;;;;;;;11.40;7.60;;;;;;;15.81;69.96;98852.02;106407;1311;138598;-75
2022/11/02 11:16:51;;;;;;;12.10;7.50;;;;;;;15.80;69.40;98853.02;106446;1312;22106;-75
2022/11/02 11:19:30;;;;;;;14.40;7.80;;;;;;;15.85;69.39;98852.48;106368;1310;138528;-75
2022/11/02 11:21:56;;;;;;;11.40;7.00;;;;;;;15.81;69.59;98848.30;106496;1296;22132;-75
2022/11/02 11:24:26;;;;;;;10.70;6.70;;;;;;;15.75;67.87;98851.72;106523;1310;22204;-75
2022/11/02 11:27:00;;;;;;;11.80;6.20;;;;;;;15.64;67.36;98849.41;106317;1311;139100;-75
2022/11/02 11:29:34;;;;;;;11.20;5.20;;;;;;;15.50;67.05;98843.86;106371;1310;23137;-76
2022/11/02 11:32:03;;;;;;;9.20;5.40;;;;;;;15.37;67.20;98840.39;106227;1299;138305;-75
2022/11/02 11:34:32;;;;;;;6.90;4.70;;;;;;;15.27;67.26;98842.44;106471;1312;22190;-75
2022/11/02 11:37:11;;;;;;;6.30;4.10;;;;;;;15.20;67.08;98839.70;106282;1305;138734;-75
2022/11/02 11:39:41;;;;;;;8.10;5.00;;;;;;;15.15;67.18;98841.61;106832;1295;22150;-75
2022/11/02 11:42:20;;;;;;;12.40;4.40;;;;;;;15.12;66.72;98840.65;106424;1297;22276;-75